ADDS TAF Data INFO
IDs: Format: Raw Decoded Include METARs

Data at: 0444 UTC 22 Apr 2018

KBCE 220353Z AUTO VRB03KT 10SM CLR 07/M04 A3027 RMK AO2 SLP175 T00721044

KBCE 220207Z 2202/2224 29010KT P6SM FEW070
  FM220300 31008KT P6SM SCT080
  FM221800 15008KT P6SM SCT120